Time;durP1;ratioP1;P1;durP2;ratioP2;P2;SDS_P1;SDS_P2;PMS_P1;PMS_P2;Temp;Humidity;BMP_temperature;BMP_pressure;BME280_temperature;BME280_humidity;BME280_pressure;Samples;Min_cycle;Max_cycle;Signal;HPM_P1;HPM_P2
2022/03/01 00:01:53;;;;;;;1.35;1.30;;;;;;;2.56;66.78;100699.81;5107454;28;20035;-82
2022/03/01 00:04:19;;;;;;;1.52;1.52;;;;;;;2.58;67.53;100710.28;5103172;28;20039;-83
2022/03/01 00:06:45;;;;;;;1.10;1.10;;;;;;;2.20;67.15;100670.81;5086413;28;20070;-81
2022/03/01 00:09:10;;;;;;;;;;;;;;;2.45;67.44;100706.38;5087051;28;20027;-82
2022/03/01 00:11:36;;;;;;;1.42;1.38;;;;;;;2.20;67.61;100676.03;5084667;28;20700;-80
2022/03/01 00:14:01;;;;;;;;;;;;;;;2.45;68.14;100706.38;5088643;28;20591;-81
2022/03/01 00:16:27;;;;;;;;;;;;;;;2.45;68.22;100701.19;5101833;28;20403;-81
2022/03/01 00:18:53;;;;;;;1.20;1.20;;;;;;;2.32;68.54;100681.66;5085882;28;19912;-81
2022/03/01 00:21:19;;;;;;;;;;;;;;;2.48;68.40;100698.69;5087302;28;20036;-83
2022/03/01 00:23:44;;;;;;;1.60;1.52;;;;;;;2.39;68.92;100707.06;5086842;28;19920;-82
2022/03/01 00:26:09;;;;;;;;;;;;;;;2.25;69.77;100700.50;5103663;28;20118;-82
2022/03/01 00:28:35;;;;;;;;;;;;;;;2.42;69.32;100691.53;5088922;28;19938;-82
2022/03/01 00:31:01;;;;;;;1.20;1.20;;;;;;;2.29;69.19;100669.41;5107457;28;19923;-82
2022/03/01 00:33:26;;;;;;;;;;;;;;;2.51;68.90;100683.16;5107756;28;20047;-81
2022/03/01 00:35:51;;;;;;;1.10;1.10;;;;;;;2.35;68.87;100633.97;5094056;28;20446;-82
2022/03/01 00:38:17;;;;;;;;;;;;;;;2.65;68.96;100686.22;5107496;28;20032;-82
2022/03/01 00:40:42;;;;;;;;;;;;;;;2.79;68.28;100677.13;5086476;28;20042;-82
2022/03/01 00:43:07;;;;;;;1.10;1.10;;;;;;;2.61;68.40;100655.69;5086478;28;19993;-80
2022/03/01 00:45:33;;;;;;;;;;;;;;;2.88;67.84;100683.50;5103413;28;20320;-81
2022/03/01 00:47:58;;;;;;;1.10;1.10;;;;;;;2.67;67.88;100653.28;5107046;28;20363;-80
2022/03/01 00:50:24;;;;;;;;;;;;;;;2.93;67.92;100679.28;5089709;28;20067;-80
2022/03/01 00:52:49;;;;;;;;;;;;;;;3.07;67.50;100677.13;5086217;28;20433;-81
2022/03/01 00:55:14;;;;;;;2.05;1.95;;;;;;;2.71;68.03;100647.34;5100800;28;19919;-80
2022/03/01 00:57:40;;;;;;;;;;;;;;;2.93;68.55;100667.13;5106485;28;20228;-81
2022/03/01 01:00:07;;;;;;;;;;;;;;;2.79;68.70;100665.81;5095399;28;19920;-81
2022/03/01 01:02:33;;;;;;;1.08;1.08;;;;;;;2.73;68.37;100652.59;5090659;28;19974;-80
2022/03/01 01:04:58;;;;;;;;;;;;;;;2.30;69.34;100655.56;5103861;28;20055;-80
2022/03/01 01:07:25;;;;;;;;;;;;;;;2.46;68.73;100653.47;5111277;28;19915;-82
2022/03/01 01:09:51;;;;;;;1.00;1.00;;;;;;;2.35;68.68;100636.59;5101265;28;19943;-80
2022/03/01 01:12:17;;;;;;;1.52;1.48;;;;;;;2.30;68.98;100636.44;5110193;28;20120;-80
2022/03/01 01:14:43;;;;;;;;;;;;;;;2.47;68.32;100650.94;5100265;28;20497;-81
2022/03/01 01:17:08;;;;;;;1.10;1.10;;;;;;;2.54;67.82;100636.38;5089900;28;19916;-81
2022/03/01 01:19:33;;;;;;;;;;;;;;;2.57;67.15;100659.03;5097404;28;20134;-81
2022/03/01 01:24:44;;;;;;;1.00;1.00;;;;;;;2.39;67.49;100635.88;5097259;28;19976;-82
2022/03/01 01:27:10;;;;;;;1.70;1.60;;;;;;;2.40;67.84;100653.28;5089960;28;20058;-82
2022/03/01 01:29:35;;;;;;;;;;;;;;;2.51;67.91;100654.50;5098880;28;20031;-82
2022/03/01 01:32:01;;;;;;;1.27;1.27;;;;;;;2.55;67.49;100656.38;5109828;28;19916;-81
2022/03/01 01:34:26;;;;;;;;;;;;;;;2.52;67.83;100664.09;5100051;28;20453;-81
2022/03/01 01:36:52;;;;;;;;;;;;;;;2.54;67.81;100665.03;5089842;28;19912;-81
2022/03/01 01:39:17;;;;;;;1.10;1.10;;;;;;;2.60;66.80;100649.59;5095076;28;20441;-82
2022/03/01 01:41:43;;;;;;;;;;;;;;;2.63;66.67;100660.13;5110611;28;20039;-82
2022/03/01 01:44:08;;;;;;;;;;;;;;;2.66;66.73;100668.03;5101241;28;19912;-81
2022/03/01 01:46:34;;;;;;;1.00;1.00;;;;;;;2.74;66.31;100663.06;5089440;28;20011;-82
2022/03/01 01:48:59;;;;;;;;;;;;;;;2.58;66.15;100661.69;5091462;28;20035;-81
2022/03/01 01:51:26;;;;;;;1.20;1.20;;;;;;;2.58;66.21;100655.59;5109772;28;19962;-83
2022/03/01 01:53:53;;;;;;;1.77;1.70;;;;;;;2.26;66.67;100624.16;5101456;28;20511;-82
2022/03/01 01:56:18;;;;;;;1.33;1.33;;;;;;;2.55;66.45;100647.66;5107790;28;20057;-83
2022/03/01 01:58:44;;;;;;;;;;;;;;;2.57;65.96;100661.66;5108424;28;20031;-81
2022/03/01 02:01:09;;;;;;;1.63;1.40;;;;;;;2.40;66.36;100629.84;5087575;28;19944;-81
2022/03/01 02:03:35;;;;;;;;;;;;;;;2.58;66.63;100648.66;5094609;28;20107;-81
2022/03/01 02:06:01;;;;;;;1.10;1.10;;;;;;;2.59;66.42;100633.91;5100186;28;19919;-81
2022/03/01 02:08:34;;;;;;;1.27;1.27;;;;;;;2.73;65.86;100632.63;5088645;28;20544;-83
2022/03/01 02:11:00;;;;;;;1.15;1.15;;;;;;;2.38;66.17;100585.50;5088081;28;20032;-82
2022/03/01 02:13:26;;;;;;;2.20;2.10;;;;;;;2.29;66.35;100570.47;5089249;28;20101;-83
2022/03/01 02:15:53;;;;;;;1.10;1.10;;;;;;;2.57;66.65;100607.81;5088303;28;20040;-82
2022/03/01 02:18:19;;;;;;;1.70;1.60;;;;;;;2.63;66.27;100621.03;5088540;28;20041;-82
2022/03/01 02:20:45;;;;;;;1.10;1.10;;;;;;;2.64;66.35;100629.72;5088513;28;20032;-82
2022/03/01 02:23:10;;;;;;;;;;;;;;;2.77;66.50;100625.81;5089017;28;20078;-82
2022/03/01 02:25:36;;;;;;;;;;;;;;;2.69;66.34;100622.97;5089144;28;19992;-81
2022/03/01 02:28:02;;;;;;;2.50;2.35;;;;;;;2.65;65.60;100614.16;5087956;28;20297;-82
2022/03/01 02:30:28;;;;;;;1.80;1.70;;;;;;;2.73;65.67;100624.81;5103339;28;20043;-82
2022/03/01 02:32:53;;;;;;;;;;;;;;;2.67;65.70;100619.41;5108775;28;20481;-81
2022/03/01 02:35:19;;;;;;;1.00;1.00;;;;;;;2.71;65.66;100618.69;5104669;28;19993;-81
2022/03/01 02:37:45;;;;;;;1.10;1.10;;;;;;;2.75;65.61;100619.66;5088517;28;20036;-82
2022/03/01 02:40:11;;;;;;;;;;;;;;;2.76;65.38;100617.09;5087951;28;20035;-81
2022/03/01 02:42:38;;;;;;;2.00;1.90;;;;;;;2.74;65.21;100613.56;5088506;28;19912;-82
2022/03/01 02:45:10;;;;;;;0.93;0.93;;;;;;;2.56;65.40;100587.81;5103724;28;20028;-82
2022/03/01 02:47:37;;;;;;;1.20;1.20;;;;;;;2.63;65.32;100610.63;5108559;28;20035;-82
2022/03/01 02:50:05;;;;;;;2.15;1.25;;;;;;;2.56;65.47;100619.06;5106332;28;20863;-80
2022/03/01 02:52:31;;;;;;;2.25;2.08;;;;;;;2.48;65.33;100604.91;5108477;28;20034;-81
2022/03/01 02:54:56;;;;;;;;;;;;;;;2.48;65.82;100603.19;5090397;28;20040;-82
2022/03/01 02:57:22;;;;;;;1.00;1.00;;;;;;;2.41;65.26;100579.50;5087843;28;19919;-82
2022/03/01 02:59:47;;;;;;;;;;;;;;;2.48;64.81;100603.19;5096518;28;20036;-81
2022/03/01 03:02:15;;;;;;;1.58;1.52;;;;;;;2.34;64.65;100599.25;5108475;28;20297;-81
2022/03/01 03:04:41;;;;;;;1.30;1.30;;;;;;;2.26;64.66;100595.53;5089654;28;20054;-81
2022/03/01 03:07:07;;;;;;;;;;;;;;;2.31;64.46;100600.03;5097025;28;20063;-81
2022/03/01 03:09:32;;;;;;;1.00;1.00;;;;;;;2.08;65.49;100572.38;5107408;28;19938;-81
2022/03/01 03:11:58;;;;;;;;;;;;;;;2.21;65.64;100590.16;5108795;28;20150;-81
2022/03/01 03:14:23;;;;;;;1.50;1.40;;;;;;;2.20;66.11;100597.94;5092603;28;19920;-81
2022/03/01 03:16:49;;;;;;;;;;;;;;;2.18;66.51;100602.19;5088077;28;20027;-82
2022/03/01 03:19:15;;;;;;;1.10;1.10;;;;;;;2.23;65.87;100574.59;5091870;28;19965;-81
2022/03/01 03:21:43;;;;;;;1.27;1.27;;;;;;;2.20;66.03;100556.28;5107163;28;20098;-82
2022/03/01 03:24:09;;;;;;;1.55;1.45;;;;;;;2.31;65.79;100575.72;5092665;28;20036;-84
2022/03/01 03:26:34;;;;;;;;;;;;;;;2.39;65.78;100596.81;5088281;28;20039;-82
2022/03/01 03:29:00;;;;;;;1.92;1.83;;;;;;;2.42;66.02;100594.31;5089652;28;20723;-82
2022/03/01 03:31:25;;;;;;;;;;;;;;;2.32;66.31;100598.34;5108592;28;20437;-83
2022/03/01 03:33:51;;;;;;;;;;;;;;;2.22;66.64;100607.53;5107589;28;19919;-80
2022/03/01 03:36:16;;;;;;;1.77;1.67;;;;;;;1.81;67.60;100575.81;5107895;28;19916;-81
2022/03/01 03:38:41;;;;;;;;;;;;;;;1.83;68.64;100607.97;5108057;28;20045;-82
2022/03/01 03:41:07;;;;;;;;;;;;;;;1.89;68.57;100610.78;5096186;28;19922;-81
2022/03/01 03:43:32;;;;;;;1.30;1.30;;;;;;;1.53;68.38;100582.63;5111945;27;19975;-81
2022/03/01 03:45:58;;;;;;;;;;;;;;;1.63;69.44;100608.97;5107821;27;20039;-82
2022/03/01 03:48:23;;;;;;;1.20;1.20;;;;;;;1.26;69.68;100587.72;5106664;28;19919;-81
2022/03/01 03:50:49;;;;;;;;;;;;;;;1.10;71.60;100604.47;5119036;27;20042;-83
2022/03/01 03:53:14;;;;;;;2.83;2.67;;;;;;;1.18;72.16;100586.56;5109559;27;19924;-82
2022/03/01 03:55:39;;;;;;;;;;;;;;;1.02;73.47;100613.66;5087833;28;20547;-80
2022/03/01 03:58:05;;;;;;;2.30;2.10;;;;;;;1.17;74.29;100615.97;5086191;28;19919;-81
2022/03/01 04:00:31;;;;;;;;;;;;;;;1.32;73.64;100602.66;5100872;28;20443;-80
2022/03/01 04:02:57;;;;;;;1.30;1.30;;;;;;;1.38;73.65;100605.50;5105593;28;20350;-79
2022/03/01 04:05:22;;;;;;;;;;;;;;;1.73;72.75;100595.44;5107005;28;20036;-79
2022/03/01 04:07:48;;;;;;;1.38;1.38;;;;;;;1.50;72.43;100589.44;5106935;28;19911;-82
2022/03/01 04:10:14;;;;;;;;;;;;;;;1.49;73.01;100591.16;5095055;28;20040;-80
2022/03/01 04:12:40;;;;;;;1.65;1.58;;;;;;;1.62;72.96;100608.06;5095314;28;19930;-80
2022/03/01 04:15:06;;;;;;;;;;;;;;;1.63;72.71;100604.66;5095562;28;20482;-80
2022/03/01 04:17:32;;;;;;;2.67;2.47;;;;;;;1.42;73.24;100583.94;5096549;28;19915;-78
2022/03/01 04:19:58;;;;;;;;;;;;;;;1.52;73.17;100599.06;5093690;28;20481;-78
2022/03/01 04:22:24;;;;;;;3.25;2.17;;;;;;;1.41;73.71;100593.47;5095100;28;19960;-80
2022/03/01 04:24:49;;;;;;;;;;;;;;;1.61;73.17;100593.31;5094585;28;20922;-79
2022/03/01 04:29:33;;;;;;;1.47;1.43;;;;;;;1.55;72.77;100554.97;5088755;27;1502649;-79
2022/03/01 04:31:58;;;;;;;;;;;;;;;1.81;72.33;100594.03;5124658;27;20035;-81
2022/03/01 04:34:23;;;;;;;2.00;1.90;;;;;;;1.66;71.75;100542.34;5116067;27;20385;-80
2022/03/01 04:36:49;;;;;;;;;;;;;;;1.87;71.87;100591.63;5121472;28;20434;-80
2022/03/01 04:39:14;;;;;;;1.23;1.23;;;;;;;1.70;72.01;100558.91;5119923;27;19963;-80
2022/03/01 04:41:40;;;;;;;;;;;;;;;1.73;72.33;100591.16;5124184;27;20122;-81
2022/03/01 04:44:05;;;;;;;;;;;;;;;1.58;72.55;100599.28;5116215;27;19972;-81
2022/03/01 04:46:32;;;;;;;2.22;2.13;;;;;;;1.58;72.18;100578.47;5107003;28;19915;-79
2022/03/01 04:48:57;;;;;;;1.40;1.40;;;;;;;1.49;72.44;100574.69;5121375;28;20070;-81
2022/03/01 04:51:23;;;;;;;;;;;;;;;1.75;72.22;100596.41;5112079;27;20537;-80
2022/03/01 04:56:07;;;;;;;1.20;1.20;;;;;;;1.41;72.69;100598.69;5077092;27;1609954;-80
2022/03/01 04:58:33;;;;;;;2.22;2.10;;;;;;;1.42;72.49;100590.06;5124856;27;20313;-80
2022/03/01 05:01:00;;;;;;;;;;;;;;;1.54;72.77;100605.19;5098212;27;20144;-80
2022/03/01 05:03:26;;;;;;;1.67;1.58;;;;;;;1.49;71.89;100570.34;5083973;28;19920;-83
2022/03/01 05:05:51;;;;;;;;;;;;;;;1.83;71.35;100609.69;5083004;28;20042;-80
2022/03/01 05:08:17;;;;;;;2.35;1.92;;;;;;;1.67;71.51;100580.53;5095756;28;20006;-81
2022/03/01 05:10:42;;;;;;;;;;;;;;;1.89;71.05;100615.97;5086941;28;20611;-81
2022/03/01 05:13:07;;;;;;;;;;;;;;;1.97;71.16;100616.25;5083742;28;19908;-81
2022/03/01 05:15:33;;;;;;;1.40;1.40;;;;;;;2.11;70.50;100608.91;5092606;28;19938;-81
2022/03/01 05:17:59;;;;;;;;;;;;;;;1.82;71.57;100624.38;5097860;28;20494;-81
2022/03/01 05:20:25;;;;;;;3.90;2.40;;;;;;;1.47;71.79;100594.53;5094427;28;20006;-80
2022/03/01 05:22:52;;;;;;;1.85;1.63;;;;;;;1.63;71.98;100596.84;5101902;28;20097;-79
2022/03/01 05:25:19;;;;;;;2.30;2.10;;;;;;;1.81;71.62;100612.22;5099221;28;20098;-81
2022/03/01 05:30:06;;;;;;;1.80;1.70;;;;;;;2.04;70.83;100607.81;5064135;27;20391;-79
2022/03/01 05:32:36;;;;;;;1.95;1.85;;;;;;;2.04;70.92;100622.53;5081266;28;20286;-80
2022/03/01 05:35:03;;;;;;;1.92;1.83;;;;;;;2.07;71.07;100633.97;5070228;28;20587;-79
2022/03/01 05:37:29;;;;;;;5.35;2.95;;;;;;;2.26;70.44;100639.78;5061422;28;20162;-82
2022/03/01 05:39:55;;;;;;;;;;;;;;;2.32;70.20;100645.19;5063665;28;20036;-81
2022/03/01 05:42:20;;;;;;;2.30;2.20;;;;;;;2.04;70.80;100639.06;5065776;28;19923;-79
2022/03/01 05:44:45;;;;;;;;;;;;;;;2.11;70.52;100647.94;5064369;28;20040;-79
2022/03/01 05:47:11;;;;;;;;;;;;;;;2.20;70.23;100653.47;5074673;28;20454;-80
2022/03/01 05:49:37;;;;;;;1.52;1.45;;;;;;;2.25;69.61;100643.22;5063873;28;20405;-79
2022/03/01 05:52:03;;;;;;;2.28;2.17;;;;;;;2.47;69.30;100652.63;5063234;28;20124;-79
2022/03/01 05:54:29;;;;;;;2.67;2.58;;;;;;;2.24;68.65;100628.41;5063930;28;20042;-80
2022/03/01 05:56:54;;;;;;;;;;;;;;;2.13;69.64;100648.88;5079487;28;20494;-80
2022/03/01 05:59:20;;;;;;;2.67;2.47;;;;;;;2.15;69.36;100645.50;5083278;28;20374;-80
2022/03/01 06:01:45;;;;;;;;;;;;;;;2.13;70.12;100660.19;5066057;28;20509;-81
2022/03/01 06:04:10;;;;;;;;;;;;;;;2.23;69.84;100656.19;5063422;28;19921;-80
2022/03/01 06:06:36;;;;;;;1.80;1.70;;;;;;;2.04;69.78;100635.53;5068148;28;19949;-81
2022/03/01 06:09:01;;;;;;;;;;;;;;;1.79;70.97;100671.09;5084266;28;20855;-80
2022/03/01 06:11:26;;;;;;;;;;;;;;;1.76;70.51;100671.00;5054808;28;19921;-81
2022/03/01 06:13:52;;;;;;;1.75;1.65;;;;;;;1.83;70.23;100664.31;5064690;28;19997;-80
2022/03/01 06:16:18;;;;;;;;;;;;;;;1.82;70.41;100675.56;5082743;28;20036;-80
2022/03/01 06:18:43;;;;;;;;;;;;;;;1.59;70.97;100679.09;5079503;28;19924;-81
2022/03/01 06:21:09;;;;;;;1.30;1.30;;;;;;;1.55;71.15;100659.00;5062998;28;19936;-81
2022/03/01 06:23:34;;;;;;;;;;;;;;;2.17;73.57;100682.00;5061660;28;20025;-80
2022/03/01 06:26:00;;;;;;;1.48;1.42;;;;;;;2.45;72.64;100677.75;5063302;28;19947;-80
2022/03/01 06:28:25;;;;;;;;;;;;;;;1.97;72.18;100678.69;5062528;28;20450;-81
2022/03/01 06:30:51;;;;;;;1.92;1.83;;;;;;;1.89;71.98;100651.53;5063314;28;19916;-80
2022/03/01 06:33:18;;;;;;;;;;;;;;;2.38;71.72;100681.88;5061846;28;20059;-81
2022/03/01 06:35:47;;;;;;;1.75;1.67;;;;;;;2.63;71.27;100660.13;5055853;28;19998;-81
2022/03/01 06:38:12;;;;;;;2.25;2.15;;;;;;;2.67;69.52;100687.16;5042931;28;20214;-82
2022/03/01 06:40:38;;;;;;;;;;;;;;;2.79;68.17;100681.47;5044849;28;20037;-80
2022/03/01 06:43:04;;;;;;;1.70;1.60;;;;;;;2.54;67.53;100675.44;5050651;28;19917;-80
2022/03/01 06:45:29;;;;;;;1.88;1.77;;;;;;;2.63;67.41;100656.63;5061381;28;20497;-80
2022/03/01 06:47:55;;;;;;;;;;;;;;;2.79;67.48;100695.38;5049951;28;20036;-80
2022/03/01 06:50:21;;;;;;;1.27;1.27;;;;;;;2.62;67.84;100691.31;5048259;28;19977;-80
2022/03/01 06:52:47;;;;;;;;;;;;;;;2.55;68.96;100700.66;5053328;28;20514;-80
2022/03/01 06:55:13;;;;;;;2.25;2.08;;;;;;;2.60;69.22;100687.81;5049475;28;19916;-81
2022/03/01 06:57:43;;;;;;;1.63;1.52;;;;;;;2.29;68.91;100674.63;5049261;28;20064;-81
2022/03/01 07:00:12;;;;;;;2.92;2.72;;;;;;;2.24;68.94;100663.16;5054511;28;20861;-80
2022/03/01 07:02:38;;;;;;;1.52;1.45;;;;;;;2.32;68.54;100687.75;5054125;28;20032;-80
2022/03/01 07:05:06;;;;;;;2.85;2.63;;;;;;;2.29;68.72;100677.22;5048925;28;20055;-80
2022/03/01 07:07:31;;;;;;;2.65;2.42;;;;;;;2.32;68.80;100674.72;5065650;28;20085;-80
2022/03/01 07:09:57;;;;;;;;;;;;;;;2.61;68.73;100703.47;5069743;28;20794;-81
2022/03/01 07:12:22;;;;;;;1.92;1.83;;;;;;;2.77;68.78;100702.25;5068720;28;19923;-81
2022/03/01 07:14:48;;;;;;;;;;;;;;;2.57;68.45;100700.72;5069626;28;20040;-81
2022/03/01 07:17:16;;;;;;;1.23;1.23;;;;;;;2.42;68.95;100672.44;5069263;28;19939;-82
2022/03/01 07:19:41;;;;;;;1.30;1.30;;;;;;;2.72;68.37;100687.28;5068967;28;20036;-81
2022/03/01 07:22:07;;;;;;;;;;;;;;;2.92;68.11;100698.38;5069818;28;20094;-81
2022/03/01 07:24:32;;;;;;;;;;;;;;;2.89;67.39;100699.16;5069386;28;20405;-81
2022/03/01 07:26:57;;;;;;;1.23;1.23;;;;;;;2.92;66.71;100693.16;5068686;28;20321;-81
2022/03/01 07:29:23;;;;;;;;;;;;;;;3.00;66.13;100694.31;5069412;28;20315;-81
2022/03/01 07:31:48;;;;;;;;;;;;;;;3.18;65.00;100693.97;5069473;28;19923;-81
2022/03/01 07:34:14;;;;;;;1.13;1.13;;;;;;;3.16;64.85;100683.50;5068529;28;20463;-81
2022/03/01 07:36:39;;;;;;;;;;;;;;;3.29;65.37;100690.00;5069123;28;20028;-81
2022/03/01 07:39:04;;;;;;;;;;;;;;;3.37;65.46;100685.88;5069193;28;19916;-81
2022/03/01 07:41:30;;;;;;;2.10;2.00;;;;;;;3.56;65.00;100683.81;5068825;28;19916;-81
2022/03/01 07:43:55;;;;;;;3.13;2.80;;;;;;;3.47;65.11;100680.94;5068970;28;20270;-81
2022/03/01 07:46:21;;;;;;;;;;;;;;;3.66;64.51;100685.88;5068963;28;20793;-81
2022/03/01 07:48:46;;;;;;;1.38;1.33;;;;;;;3.56;64.97;100668.16;5067293;28;19916;-83
2022/03/01 07:51:12;;;;;;;2.53;2.30;;;;;;;3.79;64.87;100681.00;5067955;28;20044;-81
2022/03/01 07:53:37;;;;;;;;;;;;;;;4.01;64.28;100703.34;5068374;28;20029;-82
2022/03/01 07:56:03;;;;;;;2.38;2.28;;;;;;;3.65;64.40;100689.31;5068498;28;19920;-81
2022/03/01 07:58:28;;;;;;;;;;;;;;;3.67;64.57;100705.88;5069128;28;20043;-81
2022/03/01 08:00:54;;;;;;;2.85;2.65;;;;;;;3.44;65.40;100701.72;5068177;28;19919;-81
2022/03/01 08:03:20;;;;;;;2.95;2.35;;;;;;;3.14;66.26;100687.78;5068018;28;20067;-81
2022/03/01 08:05:45;;;;;;;;;;;;;;;3.49;66.92;100706.25;5061400;28;20043;-81
2022/03/01 08:08:11;;;;;;;;;;;;;;;3.56;67.38;100709.91;5047915;28;20130;-83
2022/03/01 08:10:37;;;;;;;14.50;3.90;;;;;;;3.85;66.25;100692.47;5047459;28;19917;-82
2022/03/01 08:13:02;;;;;;;;;;;;;;;4.22;64.96;100719.63;5048532;28;20040;-81
2022/03/01 08:15:28;;;;;;;5.50;5.10;;;;;;;4.44;64.43;100717.56;5047851;28;19995;-82
2022/03/01 08:17:54;;;;;;;;;;;;;;;4.59;63.83;100711.88;5048403;28;20041;-83
2022/03/01 08:20:21;;;;;;;4.72;4.43;;;;;;;4.68;63.64;100711.19;5046871;28;19940;-83
2022/03/01 08:22:47;;;;;;;3.10;2.90;;;;;;;4.24;64.46;100691.78;5046866;28;20025;-82
2022/03/01 08:25:13;;;;;;;;;;;;;;;4.44;63.85;100720.19;5047085;28;20024;-82
2022/03/01 08:27:38;;;;;;;2.22;2.03;;;;;;;4.58;63.57;100710.09;5047124;28;20042;-82
2022/03/01 08:30:04;;;;;;;;;;;;;;;4.62;62.61;100722.41;5046014;28;20411;-82
2022/03/01 08:32:29;;;;;;;;;;;;;;;4.58;62.67;100724.03;5048198;28;19917;-82
2022/03/01 08:34:55;;;;;;;2.50;2.30;;;;;;;4.88;61.72;100724.75;5047221;28;19920;-82
2022/03/01 08:37:20;;;;;;;;;;;;;;;4.92;62.33;100719.66;5046354;28;20044;-84
2022/03/01 08:39:46;;;;;;;2.28;1.90;;;;;;;4.81;62.36;100716.78;5047416;28;20474;-82
2022/03/01 08:42:11;;;;;;;;;;;;;;;5.04;62.38;100716.47;5046918;28;20566;-82
2022/03/01 08:44:36;;;;;;;;;;;;;;;4.94;62.33;100715.38;5046730;28;20310;-82
2022/03/01 08:47:02;;;;;;;1.33;1.27;;;;;;;4.85;62.14;100696.84;5046625;28;19963;-82
2022/03/01 08:49:27;;;;;;;4.85;4.55;;;;;;;5.17;61.14;100715.91;5045497;28;20136;-82
2022/03/01 08:51:53;;;;;;;;;;;;;;;5.23;60.14;100715.16;5046975;28;20403;-84
2022/03/01 08:54:18;;;;;;;2.35;2.25;;;;;;;4.65;58.43;100689.38;5043738;28;20035;-82
2022/03/01 08:56:44;;;;;;;;;;;;;;;4.86;59.65;100716.00;5027767;28;20041;-84
2022/03/01 08:59:09;;;;;;;;;;;;;;;5.16;58.92;100714.13;5025866;28;19913;-83
2022/03/01 09:01:34;;;;;;;1.58;1.48;;;;;;;5.40;57.66;100691.97;5027453;28;19917;-83
2022/03/01 09:04:00;;;;;;;;;;;;;;;5.14;56.98;100715.84;5027859;28;20042;-82
2022/03/01 09:06:26;;;;;;;;;;;;;;;5.10;57.60;100706.13;5036610;28;19921;-82
2022/03/01 09:08:51;;;;;;;1.80;1.70;;;;;;;5.06;58.29;100680.75;5047135;28;19912;-82
2022/03/01 09:11:17;;;;;;;1.20;1.20;;;;;;;5.52;57.09;100713.19;5046464;28;20035;-82
2022/03/01 09:13:42;;;;;;;;;;;;;;;5.56;56.39;100703.66;5047291;28;20036;-82
2022/03/01 09:16:08;;;;;;;0.90;0.90;;;;;;;5.30;56.54;100692.59;5046839;28;19916;-82
2022/03/01 09:18:34;;;;;;;1.80;1.60;;;;;;;5.41;57.15;100704.22;5046710;28;20505;-84
2022/03/01 09:21:01;;;;;;;6.40;2.15;;;;;;;5.61;56.97;100688.03;5045893;28;20067;-82
2022/03/01 09:23:26;;;;;;;3.08;2.88;;;;;;;5.87;56.16;100701.66;5046671;28;20043;-81
2022/03/01 09:25:51;;;;;;;;;;;;;;;6.20;55.57;100711.09;5046256;28;20028;-82
2022/03/01 09:28:17;;;;;;;2.08;1.73;;;;;;;5.98;56.68;100694.06;5046486;28;19921;-82
2022/03/01 09:30:43;;;;;;;;;;;;;;;6.26;55.69;100706.84;5046499;28;20103;-82
2022/03/01 09:33:09;;;;;;;1.73;1.63;;;;;;;6.40;55.42;100701.88;5046346;28;19970;-82
2022/03/01 09:35:34;;;;;;;;;;;;;;;6.12;55.92;100705.72;5046783;28;20106;-82
2022/03/01 09:38:00;;;;;;;1.60;1.52;;;;;;;6.17;54.81;100679.59;5046434;28;19916;-82
2022/03/01 09:40:26;;;;;;;4.53;2.70;;;;;;;6.13;56.30;100683.00;5046562;28;20129;-82
2022/03/01 09:42:52;;;;;;;;;;;;;;;6.22;55.34;100709.38;5047205;28;20128;-82
2022/03/01 09:45:17;;;;;;;2.55;2.40;;;;;;;6.49;55.49;100695.00;5046625;28;19999;-82
2022/03/01 09:47:43;;;;;;;;;;;;;;;6.74;55.80;100691.97;5046824;28;20104;-82
2022/03/01 09:50:10;;;;;;;1.17;1.17;;;;;;;6.26;54.96;100678.03;5046419;28;19924;-82
2022/03/01 09:52:37;;;;;;;1.98;1.88;;;;;;;6.11;55.88;100672.50;5046294;28;20123;-82
2022/03/01 09:55:03;;;;;;;2.00;1.65;;;;;;;6.49;55.88;100671.41;5046192;28;20032;-82
2022/03/01 09:57:29;;;;;;;2.08;1.98;;;;;;;7.03;54.78;100694.19;5047107;28;20564;-81
2022/03/01 09:59:55;;;;;;;;;;;;;;;7.04;52.38;100700.28;5047105;28;20033;-81
2022/03/01 10:02:20;;;;;;;1.60;1.50;;;;;;;6.70;51.65;100674.41;5046366;28;19983;-84
2022/03/01 10:04:53;;;;;;;3.10;2.88;;;;;;;7.09;50.37;100682.88;5046048;28;20641;-83
2022/03/01 10:07:24;;;;;;;1.45;1.27;;;;;;;7.05;49.79;100671.47;5046039;28;20025;-82
2022/03/01 10:09:50;;;;;;;2.03;1.92;;;;;;;6.84;51.56;100666.75;5046521;28;20032;-81
2022/03/01 10:12:23;;;;;;;1.05;1.02;;;;;;;6.02;49.98;100643.50;5046548;28;20033;-81
2022/03/01 10:15:06;;;;;;;0.80;0.80;;;;;;;6.35;50.92;100672.06;5046959;28;20502;-83
2022/03/01 10:17:43;;;;;;;1.75;1.60;;;;;;;6.71;51.88;100654.31;5050150;28;20051;-82
2022/03/01 10:20:12;;;;;;;1.08;1.08;;;;;;;5.96;50.92;100661.69;5050048;28;20036;-81
2022/03/01 10:22:42;;;;;;;1.27;1.25;;;;;;;6.12;50.60;100634.97;5050055;28;20530;-83
2022/03/01 10:25:08;;;;;;;3.00;1.73;;;;;;;6.31;50.27;100649.28;5050309;28;20032;-83
2022/03/01 10:27:35;;;;;;;2.35;2.25;;;;;;;6.65;49.18;100644.59;5050348;28;20056;-84
2022/03/01 10:30:03;;;;;;;1.08;1.08;;;;;;;6.87;51.82;100631.84;5048800;28;20056;-85
2022/03/01 10:32:28;;;;;;;1.38;1.27;;;;;;;7.11;49.59;100644.44;5050197;28;20514;-85
2022/03/01 10:35:20;;;;;;;;;;;;;;;7.16;49.24;100648.00;5049468;28;20033;-83
2022/03/01 10:37:50;;;;;;;1.33;1.25;;;;;;;7.36;48.55;100622.03;5049543;28;19983;-83
2022/03/01 10:40:21;;;;;;;1.08;1.08;;;;;;;7.23;51.02;100635.84;5049822;28;20021;-83
2022/03/01 10:43:09;;;;;;;1.52;1.42;;;;;;;7.25;51.74;100632.38;5048666;28;20036;-81
2022/03/01 10:45:43;;;;;;;3.83;3.45;;;;;;;7.39;51.30;100629.94;5049732;28;20060;-82
2022/03/01 10:48:11;;;;;;;1.88;1.63;;;;;;;6.93;50.65;100617.06;5029503;28;20065;-82
2022/03/01 10:50:39;;;;;;;2.97;2.78;;;;;;;6.75;50.85;100601.06;5029031;28;20812;-82
2022/03/01 10:53:06;;;;;;;3.67;3.47;;;;;;;6.57;54.21;100599.91;5029110;28;20057;-83
2022/03/01 10:55:34;;;;;;;5.97;3.10;;;;;;;6.73;54.32;100598.41;5039621;28;20119;-83
2022/03/01 10:58:01;;;;;;;1.00;1.00;;;;;;;6.97;54.25;100590.03;5049397;28;20037;-83
2022/03/01 11:00:27;;;;;;;2.30;1.77;;;;;;;7.20;53.21;100583.31;5048309;28;20029;-82
2022/03/01 11:02:53;;;;;;;10.57;4.72;;;;;;;7.07;52.81;100572.66;5048187;28;20127;-83
2022/03/01 11:05:18;;;;;;;;;;;;;;;7.30;51.21;100590.44;5048798;28;20214;-83
2022/03/01 11:07:48;;;;;;;3.30;2.28;;;;;;;7.27;49.68;100600.91;5048853;28;19921;-84
2022/03/01 11:10:17;;;;;;;2.92;2.72;;;;;;;6.80;48.41;100575.78;5048740;28;20037;-83
2022/03/01 11:12:46;;;;;;;1.58;1.48;;;;;;;6.99;48.58;100575.16;5049045;28;20040;-82
2022/03/01 11:15:31;;;;;;;2.10;2.00;;;;;;;7.05;51.66;100590.13;5047077;28;20576;-83
2022/03/01 11:18:16;;;;;;;2.40;2.20;;;;;;;6.63;51.08;100575.53;5044659;28;20087;-83
2022/03/01 11:20:44;;;;;;;2.67;2.47;;;;;;;6.07;48.97;100563.25;5048491;28;20085;-82
2022/03/01 11:23:12;;;;;;;3.58;3.10;;;;;;;6.26;51.05;100575.84;5048988;28;20040;-83
2022/03/01 11:25:40;;;;;;;1.80;1.70;;;;;;;6.23;51.60;100580.16;5048545;28;20771;-85
2022/03/01 11:28:09;;;;;;;1.10;1.10;;;;;;;6.03;51.44;100570.19;5048706;28;20044;-82
2022/03/01 11:30:41;;;;;;;5.93;3.03;;;;;;;6.16;52.57;100573.91;5048096;28;20041;-85
2022/03/01 11:33:08;;;;;;;1.88;1.77;;;;;;;6.31;52.44;100570.66;5048963;28;20022;-82
2022/03/01 11:35:35;;;;;;;1.23;1.13;;;;;;;5.80;51.56;100547.94;5048755;28;20035;-83
2022/03/01 11:38:25;;;;;;;1.50;1.40;;;;;;;5.60;51.94;100564.16;5047925;28;20060;-81
2022/03/01 11:40:51;;;;;;;1.23;1.15;;;;;;;5.23;52.27;100557.31;5044926;28;20046;-82
2022/03/01 11:43:20;;;;;;;;;;;;;;;5.27;52.72;100569.63;5048162;28;20528;-82
2022/03/01 11:45:56;;;;;;;1.38;1.33;;;;;;;5.39;51.38;100556.75;5047871;28;19920;-82
2022/03/01 11:48:31;;;;;;;1.80;1.70;;;;;;;5.38;54.41;100557.63;5048572;28;20517;-82
2022/03/01 11:51:03;;;;;;;1.00;1.00;;;;;;;5.45;54.50;100554.25;5047962;28;20060;-82
2022/03/01 11:53:37;;;;;;;1.02;1.02;;;;;;;5.36;54.66;100541.00;5047669;28;20037;-84
2022/03/01 11:56:05;;;;;;;2.15;2.05;;;;;;;5.27;53.61;100523.41;5044754;28;20047;-83
2022/03/01 11:58:34;;;;;;;2.00;1.90;;;;;;;5.15;53.69;100550.19;5048201;28;20032;-82
2022/03/01 12:01:04;;;;;;;1.55;1.45;;;;;;;4.93;54.15;100534.91;5047548;28;20096;-83
2022/03/01 12:03:29;;;;;;;1.83;1.73;;;;;;;4.90;56.05;100538.31;5048153;28;20028;-84
2022/03/01 12:05:55;;;;;;;;;;;;;;;4.96;56.28;100546.31;5039739;28;20103;-84